Time;durP1;ratioP1;P1;durP2;ratioP2;P2;SDS_P1;SDS_P2;PMS_P1;PMS_P2;Temp;Humidity;BMP_temperature;BMP_pressure;BME280_temperature;BME280_humidity;BME280_pressure;Samples;Min_cycle;Max_cycle;Signal;HPM_P1;HPM_P2
2024/02/28 00:00:13;;;;;;;59.88;27.25;;;;;;;;;;4985820;28;20054;-85
2024/02/28 00:02:41;;;;;;;56.83;26.92;;;;;;;;;;4988483;28;20050;-85
2024/02/28 00:05:08;;;;;;;71.18;29.02;;;;;;;;;;4994766;28;20078;-85
2024/02/28 00:07:36;;;;;;;59.88;27.17;;;;;;;;;;4979318;28;20058;-85
2024/02/28 00:10:03;;;;;;;70.18;29.65;;;;;;;;;;4995252;28;20050;-85
2024/02/28 00:12:30;;;;;;;63.08;28.27;;;;;;;;;;4978970;28;20105;-85
2024/02/28 00:14:57;;;;;;;67.22;28.95;;;;;;;;;;4989531;28;20051;-85
2024/02/28 00:17:25;;;;;;;62.95;29.63;;;;;;;;;;4993730;28;20454;-85
2024/02/28 00:19:52;;;;;;;75.72;31.35;;;;;;;;;;4995745;28;20510;-85
2024/02/28 00:22:20;;;;;;;63.15;28.58;;;;;;;;;;4996228;28;20050;-85
2024/02/28 00:24:47;;;;;;;56.00;27.20;;;;;;;;;;4990703;28;20159;-84
2024/02/28 00:27:15;;;;;;;67.40;29.13;;;;;;;;;;4985598;28;20075;-86
2024/02/28 00:29:42;;;;;;;57.80;29.40;;;;;;;;;;4996732;28;20051;-85
2024/02/28 00:32:09;;;;;;;66.22;30.15;;;;;;;;;;4988822;28;20101;-85
2024/02/28 00:34:36;;;;;;;61.15;28.48;;;;;;;;;;4984432;28;20069;-86
2024/02/28 00:37:04;;;;;;;58.20;27.92;;;;;;;;;;4996462;28;20046;-84
2024/02/28 00:39:31;;;;;;;64.20;29.00;;;;;;;;;;4990444;28;20051;-84
2024/02/28 00:41:59;;;;;;;64.25;29.08;;;;;;;;;;4981977;28;20051;-85
2024/02/28 00:44:26;;;;;;;73.40;31.33;;;;;;;;;;4993102;28;20050;-85
2024/02/28 00:46:53;;;;;;;68.80;30.25;;;;;;;;;;4994249;28;20054;-85
2024/02/28 00:49:21;;;;;;;64.95;28.35;;;;;;;;;;4992952;28;20101;-85
2024/02/28 00:51:49;;;;;;;61.50;30.42;;;;;;;;;;4986595;28;20105;-85
2024/02/28 00:54:16;;;;;;;68.07;30.63;;;;;;;;;;4992332;28;20052;-85
2024/02/28 00:56:43;;;;;;;80.38;32.22;;;;;;;;;;4986832;28;20043;-86
2024/02/28 00:59:12;;;;;;;80.07;31.35;;;;;;;;;;4995671;28;20451;-86
2024/02/28 01:01:41;;;;;;;78.50;32.45;;;;;;;;;;4987846;28;20050;-86
2024/02/28 01:04:09;;;;;;;70.38;32.15;;;;;;;;;;4990655;28;20065;-86
2024/02/28 01:06:37;;;;;;;82.82;33.05;;;;;;;;;;4983915;28;20448;-85
2024/02/28 01:09:04;;;;;;;83.20;32.67;;;;;;;;;;4999694;28;20423;-86
2024/02/28 01:11:32;;;;;;;91.22;35.03;;;;;;;;;;4991325;28;20488;-86
2024/02/28 01:13:59;;;;;;;92.43;35.08;;;;;;;;;;5000278;28;20109;-85
2024/02/28 01:16:27;;;;;;;83.10;34.30;;;;;;;;;;5001094;28;20042;-86
2024/02/28 01:18:55;;;;;;;82.15;34.00;;;;;;;;;;4995106;28;20492;-85
2024/02/28 01:21:22;;;;;;;82.07;32.80;;;;;;;;;;4996731;28;20042;-86
2024/02/28 01:23:49;;;;;;;93.10;34.60;;;;;;;;;;4987357;28;20128;-86
2024/02/28 01:26:17;;;;;;;82.18;33.72;;;;;;;;;;4991812;28;20081;-85
2024/02/28 01:28:44;;;;;;;92.00;35.72;;;;;;;;;;4994179;28;20076;-86
2024/02/28 01:31:11;;;;;;;83.70;33.92;;;;;;;;;;5002464;28;20050;-86
2024/02/28 01:33:40;;;;;;;100.13;35.88;;;;;;;;;;4990482;28;20053;-86
2024/02/28 01:36:07;;;;;;;94.60;36.03;;;;;;;;;;5000307;28;20043;-86
2024/02/28 01:38:35;;;;;;;100.85;34.70;;;;;;;;;;5003550;28;20109;-86
2024/02/28 01:41:02;;;;;;;96.22;34.92;;;;;;;;;;4995619;28;20137;-86
2024/02/28 01:43:29;;;;;;;99.30;36.45;;;;;;;;;;4994741;28;20066;-86
2024/02/28 01:45:57;;;;;;;100.05;35.20;;;;;;;;;;5004107;28;20046;-86
2024/02/28 01:48:24;;;;;;;88.03;34.38;;;;;;;;;;5003211;28;20400;-86
2024/02/28 01:50:51;;;;;;;94.85;34.83;;;;;;;;;;4996391;28;20110;-86
2024/02/28 01:53:19;;;;;;;95.07;35.47;;;;;;;;;;4999066;28;20046;-85
2024/02/28 01:55:48;;;;;;;93.32;34.85;;;;;;;;;;4999831;28;20050;-85
2024/02/28 01:58:15;;;;;;;87.40;33.80;;;;;;;;;;4998057;28;20046;-85
2024/02/28 02:00:42;;;;;;;92.82;34.08;;;;;;;;;;4997697;28;20456;-86
2024/02/28 02:03:11;;;;;;;88.22;32.65;;;;;;;;;;4998146;28;20069;-85
2024/02/28 02:05:38;;;;;;;92.70;34.08;;;;;;;;;;4982587;28;20093;-85
2024/02/28 02:08:06;;;;;;;80.82;31.02;;;;;;;;;;4979047;28;20058;-86
2024/02/28 02:10:33;;;;;;;75.07;30.67;;;;;;;;;;4989479;28;20393;-86
2024/02/28 02:13:06;;;;;;;61.70;27.10;;;;;;;;;;4992291;28;20047;-85
2024/02/28 02:15:34;;;;;;;71.55;30.13;;;;;;;;;;4995855;28;20050;-86
2024/02/28 02:18:02;;;;;;;67.60;28.65;;;;;;;;;;4986268;28;20599;-86
2024/02/28 02:20:33;;;;;;;69.05;27.65;;;;;;;;;;4995933;28;20050;-85
2024/02/28 02:23:01;;;;;;;63.08;27.30;;;;;;;;;;4988136;28;20051;-85
2024/02/28 02:25:29;;;;;;;61.35;27.52;;;;;;;;;;4996189;28;20110;-86
2024/02/28 02:27:56;;;;;;;66.00;27.98;;;;;;;;;;4994914;28;20054;-86
2024/02/28 02:30:23;;;;;;;71.55;28.45;;;;;;;;;;4997330;28;20058;-86
2024/02/28 02:32:51;;;;;;;60.40;29.02;;;;;;;;;;4993412;28;20129;-86
2024/02/28 02:35:18;;;;;;;74.18;30.02;;;;;;;;;;4982079;28;20057;-86
2024/02/28 02:37:45;;;;;;;75.85;29.52;;;;;;;;;;4988696;28;20058;-86
2024/02/28 02:40:13;;;;;;;63.13;27.42;;;;;;;;;;4988857;28;20572;-85
2024/02/28 02:42:40;;;;;;;68.18;28.05;;;;;;;;;;4997482;28;20114;-85
2024/02/28 02:45:07;;;;;;;72.75;28.63;;;;;;;;;;5000074;28;20054;-86
2024/02/28 02:47:35;;;;;;;60.13;27.20;;;;;;;;;;4991328;28;20054;-86
2024/02/28 02:50:02;;;;;;;65.30;27.77;;;;;;;;;;4999548;28;20062;-86
2024/02/28 02:52:29;;;;;;;74.47;29.52;;;;;;;;;;5002908;28;20050;-86
2024/02/28 02:54:56;;;;;;;77.22;29.60;;;;;;;;;;5004388;28;20101;-86
2024/02/28 02:57:24;;;;;;;68.65;29.50;;;;;;;;;;4996232;28;20050;-86
2024/02/28 02:59:51;;;;;;;66.53;28.67;;;;;;;;;;4999230;28;20101;-86
2024/02/28 03:02:18;;;;;;;68.43;28.10;;;;;;;;;;5006656;28;20047;-86
2024/02/28 03:04:46;;;;;;;71.82;29.20;;;;;;;;;;5007637;28;20046;-87
2024/02/28 03:07:13;;;;;;;67.82;29.23;;;;;;;;;;5004665;28;20054;-86
2024/02/28 03:09:40;;;;;;;74.45;28.65;;;;;;;;;;4997378;28;20050;-85
2024/02/28 03:12:08;;;;;;;70.43;28.80;;;;;;;;;;4998733;28;20398;-85
2024/02/28 03:14:36;;;;;;;57.45;27.30;;;;;;;;;;4996812;28;20562;-86
2024/02/28 03:17:03;;;;;;;64.88;27.92;;;;;;;;;;4982019;28;20055;-85
2024/02/28 03:19:30;;;;;;;62.97;26.67;;;;;;;;;;4988586;28;20051;-85
2024/02/28 03:21:57;;;;;;;69.50;27.95;;;;;;;;;;4996707;28;20523;-85
2024/02/28 03:24:25;;;;;;;59.85;27.90;;;;;;;;;;4988503;28;20452;-85
2024/02/28 03:26:52;;;;;;;63.88;26.63;;;;;;;;;;4994224;28;20054;-85
2024/02/28 03:29:19;;;;;;;68.25;28.17;;;;;;;;;;4993126;28;20054;-84
2024/02/28 03:31:47;;;;;;;58.30;26.15;;;;;;;;;;4987829;28;20042;-84
2024/02/28 03:34:14;;;;;;;62.15;27.95;;;;;;;;;;4995245;28;20109;-85
2024/02/28 03:36:41;;;;;;;61.78;27.45;;;;;;;;;;4994326;28;20046;-85
2024/02/28 03:39:09;;;;;;;59.58;26.25;;;;;;;;;;4986529;28;20047;-84
2024/02/28 03:41:36;;;;;;;59.17;27.60;;;;;;;;;;4978907;28;20141;-85
2024/02/28 03:44:04;;;;;;;74.68;28.55;;;;;;;;;;4994229;28;20058;-84
2024/02/28 03:46:31;;;;;;;81.05;29.30;;;;;;;;;;4991763;28;20520;-85
2024/02/28 03:48:58;;;;;;;74.13;28.80;;;;;;;;;;4991156;28;20096;-86
2024/02/28 03:51:26;;;;;;;67.88;27.60;;;;;;;;;;4996695;28;20075;-85
2024/02/28 03:53:53;;;;;;;78.38;29.48;;;;;;;;;;4994732;28;20046;-85
2024/02/28 03:56:24;;;;;;;62.70;27.90;;;;;;;;;;4993614;28;20098;-85
2024/02/28 03:58:53;;;;;;;86.35;30.40;;;;;;;;;;4989110;28;20074;-84
2024/02/28 04:01:20;;;;;;;76.63;30.38;;;;;;;;;;4993968;28;20097;-84
2024/02/28 04:03:47;;;;;;;73.60;28.38;;;;;;;;;;4994874;28;20097;-85
2024/02/28 04:06:15;;;;;;;75.95;28.80;;;;;;;;;;4985889;28;20085;-84
2024/02/28 04:08:44;;;;;;;69.63;27.35;;;;;;;;;;4985531;28;20105;-84
2024/02/28 04:11:11;;;;;;;68.05;28.70;;;;;;;;;;4994670;28;20072;-84
2024/02/28 04:13:39;;;;;;;74.68;29.65;;;;;;;;;;4993598;28;20046;-84
2024/02/28 04:16:07;;;;;;;68.57;26.95;;;;;;;;;;4993294;28;20062;-84
2024/02/28 04:18:34;;;;;;;60.00;26.80;;;;;;;;;;4986357;28;20053;-85
2024/02/28 04:21:02;;;;;;;75.30;28.58;;;;;;;;;;4998765;28;20050;-85
2024/02/28 04:23:29;;;;;;;61.22;26.83;;;;;;;;;;4993766;28;20058;-84
2024/02/28 04:25:56;;;;;;;67.55;28.75;;;;;;;;;;4983173;28;20064;-85
2024/02/28 04:28:24;;;;;;;65.75;28.65;;;;;;;;;;4992518;28;20112;-84
2024/02/28 04:30:51;;;;;;;62.72;28.33;;;;;;;;;;4993449;28;20101;-84
2024/02/28 04:33:18;;;;;;;72.45;29.10;;;;;;;;;;4993730;28;20082;-84
2024/02/28 04:35:45;;;;;;;62.25;28.80;;;;;;;;;;4977723;28;20082;-84
2024/02/28 04:38:13;;;;;;;72.22;30.48;;;;;;;;;;4981313;28;20046;-87
2024/02/28 04:40:40;;;;;;;69.68;30.65;;;;;;;;;;4996935;28;20043;-86
2024/02/28 04:43:07;;;;;;;60.17;28.45;;;;;;;;;;4988229;28;20059;-86
2024/02/28 04:45:35;;;;;;;75.40;30.98;;;;;;;;;;4984490;28;20055;-87
2024/02/28 04:48:02;;;;;;;68.78;29.42;;;;;;;;;;4993381;28;20112;-87
2024/02/28 04:50:31;;;;;;;71.28;28.83;;;;;;;;;;4994314;28;20063;-87
2024/02/28 04:52:59;;;;;;;76.88;30.35;;;;;;;;;;4982799;28;20050;-87
2024/02/28 04:55:26;;;;;;;66.32;29.13;;;;;;;;;;4996081;28;20057;-87
2024/02/28 04:57:53;;;;;;;59.40;27.80;;;;;;;;;;4995751;28;20046;-87
2024/02/28 05:00:21;;;;;;;71.90;29.30;;;;;;;;;;4995528;28;20058;-87
2024/02/28 05:02:48;;;;;;;64.45;26.88;;;;;;;;;;4995684;28;20050;-85
2024/02/28 05:05:15;;;;;;;57.40;26.95;;;;;;;;;;4976193;28;20460;-87
2024/02/28 05:07:42;;;;;;;68.90;28.77;;;;;;;;;;4984911;28;20046;-86
2024/02/28 05:10:10;;;;;;;64.22;27.23;;;;;;;;;;4977366;28;20460;-86
2024/02/28 05:12:37;;;;;;;70.97;29.95;;;;;;;;;;4983861;28;20047;-87
2024/02/28 05:15:06;;;;;;;66.72;28.33;;;;;;;;;;4991587;28;20047;-87
2024/02/28 05:17:33;;;;;;;65.50;29.70;;;;;;;;;;4996823;28;20046;-86
2024/02/28 05:20:01;;;;;;;60.75;28.42;;;;;;;;;;4989274;28;20114;-88
2024/02/28 05:22:28;;;;;;;64.22;29.40;;;;;;;;;;4997170;28;20057;-88
2024/02/28 05:24:55;;;;;;;63.05;29.80;;;;;;;;;;4992450;28;20389;-87
2024/02/28 05:27:23;;;;;;;63.95;28.75;;;;;;;;;;4996667;28;20475;-88
2024/02/28 05:29:50;;;;;;;68.13;28.05;;;;;;;;;;4998521;28;20050;-88
2024/02/28 05:32:17;;;;;;;61.28;27.83;;;;;;;;;;4999247;28;20050;-88
2024/02/28 05:34:45;;;;;;;64.65;26.70;;;;;;;;;;4999803;28;20054;-88
2024/02/28 05:37:13;;;;;;;67.05;29.63;;;;;;;;;;4991747;28;20058;-85
2024/02/28 05:39:40;;;;;;;62.60;27.42;;;;;;;;;;4992150;28;20055;-85
2024/02/28 05:42:07;;;;;;;58.17;27.83;;;;;;;;;;4984328;28;20057;-85
2024/02/28 05:44:35;;;;;;;66.97;27.88;;;;;;;;;;4985563;28;20508;-85
2024/02/28 05:47:02;;;;;;;66.50;29.58;;;;;;;;;;4992528;28;20050;-86
2024/02/28 05:49:29;;;;;;;68.00;28.85;;;;;;;;;;4979612;28;20054;-86
2024/02/28 05:51:56;;;;;;;64.95;30.25;;;;;;;;;;4997840;28;20054;-85
2024/02/28 05:54:24;;;;;;;71.75;29.30;;;;;;;;;;4989408;28;20057;-85
2024/02/28 05:56:53;;;;;;;66.15;28.48;;;;;;;;;;4979685;28;20057;-85
2024/02/28 05:59:21;;;;;;;61.15;28.05;;;;;;;;;;4996494;28;20054;-85
2024/02/28 06:01:48;;;;;;;69.10;29.38;;;;;;;;;;4993686;28;20050;-85
2024/02/28 06:04:15;;;;;;;69.10;29.75;;;;;;;;;;4995918;28;20112;-84
2024/02/28 06:06:43;;;;;;;64.72;27.15;;;;;;;;;;4995641;28;20073;-85
2024/02/28 06:09:11;;;;;;;67.05;29.13;;;;;;;;;;4988045;28;20055;-85
2024/02/28 06:14:55;;;;;;;66.28;27.60;;;;;;;;;;4982604;28;20045;-85
2024/02/28 06:17:23;;;;;;;58.80;28.25;;;;;;;;;;4997967;28;20065;-85
2024/02/28 06:19:50;;;;;;;59.10;27.42;;;;;;;;;;4993568;28;20058;-85
2024/02/28 06:22:18;;;;;;;59.30;27.85;;;;;;;;;;4991160;28;20488;-85
2024/02/28 06:24:46;;;;;;;63.50;27.70;;;;;;;;;;4994261;28;20533;-87
2024/02/28 06:27:13;;;;;;;68.40;28.33;;;;;;;;;;5000553;28;20046;-86
2024/02/28 06:29:41;;;;;;;62.17;27.85;;;;;;;;;;4992465;28;20050;-85
2024/02/28 06:32:08;;;;;;;59.78;26.67;;;;;;;;;;5000668;28;20058;-87
2024/02/28 06:34:36;;;;;;;53.88;24.50;;;;;;;;;;4992027;28;20100;-87
2024/02/28 06:37:03;;;;;;;64.05;27.60;;;;;;;;;;4994327;28;20083;-87
2024/02/28 06:39:31;;;;;;;58.50;26.65;;;;;;;;;;5002301;28;20058;-86
2024/02/28 06:41:58;;;;;;;60.38;26.30;;;;;;;;;;4996087;28;20113;-86
2024/02/28 06:44:26;;;;;;;64.30;27.40;;;;;;;;;;4993000;28;20058;-88
2024/02/28 06:46:53;;;;;;;59.08;26.77;;;;;;;;;;5003458;28;20057;-87
2024/02/28 06:49:20;;;;;;;53.38;25.92;;;;;;;;;;4995861;28;20050;-88
2024/02/28 06:51:47;;;;;;;62.58;28.02;;;;;;;;;;4994038;28;20055;-86
2024/02/28 06:54:15;;;;;;;55.35;27.17;;;;;;;;;;4995525;28;20050;-87
2024/02/28 06:56:42;;;;;;;53.65;25.15;;;;;;;;;;4998446;28;20046;-87
2024/02/28 06:59:09;;;;;;;50.35;24.95;;;;;;;;;;4990856;28;20050;-87
2024/02/28 07:01:36;;;;;;;47.92;23.70;;;;;;;;;;4982662;28;20518;-87
2024/02/28 07:04:04;;;;;;;47.45;24.50;;;;;;;;;;4999868;28;20080;-87
2024/02/28 07:06:32;;;;;;;43.75;23.30;;;;;;;;;;4986423;28;20051;-87
2024/02/28 07:09:00;;;;;;;46.63;23.85;;;;;;;;;;4994231;28;20054;-87
2024/02/28 07:11:27;;;;;;;42.20;23.33;;;;;;;;;;4999911;28;20050;-87
2024/02/28 07:13:54;;;;;;;43.80;22.08;;;;;;;;;;4998277;28;20503;-87
2024/02/28 07:16:21;;;;;;;43.53;21.55;;;;;;;;;;4990228;28;20086;-86
2024/02/28 07:18:49;;;;;;;39.33;21.77;;;;;;;;;;4984929;28;20053;-87
2024/02/28 07:21:16;;;;;;;37.38;21.00;;;;;;;;;;4987719;28;20042;-87
2024/02/28 07:23:43;;;;;;;39.10;20.65;;;;;;;;;;4999360;28;20451;-88
2024/02/28 07:26:15;;;;;;;39.10;20.23;;;;;;;;;;4998074;28;20046;-87
2024/02/28 07:28:53;;;;;;;33.83;17.98;;;;;;;;;;4987457;28;20058;-85
2024/02/28 07:31:20;;;;;;;31.95;18.00;;;;;;;;;;4998331;28;20483;-84
2024/02/28 07:33:47;;;;;;;34.78;18.88;;;;;;;;;;4995273;28;20050;-84
2024/02/28 07:36:15;;;;;;;31.73;17.95;;;;;;;;;;4994763;28;20081;-84
2024/02/28 07:38:42;;;;;;;31.45;18.10;;;;;;;;;;4983720;28;20046;-84
2024/02/28 07:41:10;;;;;;;33.50;17.75;;;;;;;;;;4991843;28;20530;-84
2024/02/28 07:43:37;;;;;;;30.52;17.25;;;;;;;;;;4979121;28;20046;-84
2024/02/28 07:46:09;;;;;;;32.97;18.35;;;;;;;;;;4995285;28;20085;-84
2024/02/28 07:48:36;;;;;;;29.73;17.08;;;;;;;;;;4992139;28;20078;-84
2024/02/28 07:51:07;;;;;;;26.20;16.20;;;;;;;;;;4991577;28;20081;-84
2024/02/28 07:53:35;;;;;;;27.85;16.00;;;;;;;;;;4997280;28;20042;-85
2024/02/28 07:56:02;;;;;;;24.13;15.68;;;;;;;;;;4989377;28;20098;-84
2024/02/28 07:58:30;;;;;;;26.13;17.05;;;;;;;;;;4981932;28;20069;-85
2024/02/28 08:00:57;;;;;;;29.40;18.38;;;;;;;;;;4991351;28;20105;-85
2024/02/28 08:03:25;;;;;;;21.52;13.93;;;;;;;;;;4997108;28;20046;-85
2024/02/28 08:05:53;;;;;;;27.92;18.92;;;;;;;;;;4994711;28;20084;-84
2024/02/28 08:08:20;;;;;;;23.17;16.38;;;;;;;;;;4995523;28;20058;-84
2024/02/28 08:10:48;;;;;;;21.70;14.40;;;;;;;;;;4995289;28;20050;-84
2024/02/28 08:13:16;;;;;;;22.30;13.27;;;;;;;;;;4995136;28;20062;-84
2024/02/28 08:15:43;;;;;;;19.98;13.02;;;;;;;;;;4989851;28;20046;-84
2024/02/28 08:18:11;;;;;;;16.85;11.40;;;;;;;;;;4991404;28;20062;-84
2024/02/28 08:20:38;;;;;;;15.18;10.95;;;;;;;;;;4986446;28;20058;-84
2024/02/28 08:23:08;;;;;;;14.48;10.18;;;;;;;;;;4986090;28;20050;-82
2024/02/28 08:25:35;;;;;;;20.88;14.85;;;;;;;;;;4990667;28;20060;-82
2024/02/28 08:28:03;;;;;;;12.43;9.07;;;;;;;;;;4982393;28;20142;-82
2024/02/28 08:30:30;;;;;;;12.40;9.50;;;;;;;;;;4985286;28;20050;-82
2024/02/28 08:32:58;;;;;;;11.75;9.48;;;;;;;;;;4994437;28;20046;-82
2024/02/28 08:35:26;;;;;;;11.68;9.15;;;;;;;;;;4985698;28;20056;-81
2024/02/28 08:37:53;;;;;;;12.48;9.50;;;;;;;;;;4988712;28;20105;-82
2024/02/28 08:40:20;;;;;;;10.95;9.00;;;;;;;;;;4983960;28;20085;-82
2024/02/28 08:42:52;;;;;;;11.27;9.10;;;;;;;;;;4995465;28;20057;-82
2024/02/28 08:45:20;;;;;;;10.60;8.98;;;;;;;;;;4994114;28;20475;-82
2024/02/28 08:47:48;;;;;;;11.45;8.63;;;;;;;;;;4990756;28;20134;-83
2024/02/28 08:50:15;;;;;;;11.25;9.23;;;;;;;;;;4983566;28;20487;-82
2024/02/28 08:52:42;;;;;;;11.07;9.18;;;;;;;;;;4994168;28;20058;-82
2024/02/28 08:55:10;;;;;;;10.45;9.00;;;;;;;;;;4996002;28;20132;-83
2024/02/28 08:57:37;;;;;;;10.48;9.00;;;;;;;;;;4978990;28;20050;-82
2024/02/28 09:00:05;;;;;;;10.10;8.77;;;;;;;;;;4996189;28;20046;-83
2024/02/28 09:02:33;;;;;;;11.80;8.48;;;;;;;;;;4992906;28;20110;-82
2024/02/28 09:05:00;;;;;;;11.15;8.73;;;;;;;;;;4989869;28;20050;-83
2024/02/28 09:07:28;;;;;;;11.48;9.02;;;;;;;;;;4995537;28;20046;-82
2024/02/28 09:09:56;;;;;;;9.30;8.32;;;;;;;;;;4995591;28;20050;-82
2024/02/28 09:12:23;;;;;;;8.85;7.93;;;;;;;;;;4994296;28;20050;-83
2024/02/28 09:14:56;;;;;;;15.38;12.73;;;;;;;;;;4989512;28;20210;-84
2024/02/28 09:17:23;;;;;;;9.27;7.88;;;;;;;;;;4997228;28;20519;-83
2024/02/28 09:19:54;;;;;;;10.38;8.20;;;;;;;;;;4979823;28;20054;-82
2024/02/28 09:22:23;;;;;;;9.80;8.80;;;;;;;;;;4989984;28;20129;-82
2024/02/28 09:24:50;;;;;;;9.70;8.15;;;;;;;;;;4988690;28;20422;-82
2024/02/28 09:27:18;;;;;;;8.05;7.15;;;;;;;;;;4997282;28;20494;-82
2024/02/28 09:29:45;;;;;;;9.13;8.07;;;;;;;;;;4996865;28;20141;-82
2024/02/28 09:32:14;;;;;;;8.18;7.05;;;;;;;;;;4996508;28;20518;-83
2024/02/28 09:34:41;;;;;;;7.60;6.70;;;;;;;;;;4998160;28;20046;-84
2024/02/28 09:37:09;;;;;;;8.60;7.35;;;;;;;;;;4998006;28;20504;-84
2024/02/28 09:39:39;;;;;;;9.65;7.32;;;;;;;;;;4981758;28;20046;-83
2024/02/28 09:42:08;;;;;;;8.43;7.13;;;;;;;;;;4997450;28;20065;-83
2024/02/28 09:44:36;;;;;;;8.27;7.40;;;;;;;;;;4990126;28;20054;-84
2024/02/28 09:47:04;;;;;;;7.93;7.10;;;;;;;;;;4997960;28;20412;-83
2024/02/28 09:49:32;;;;;;;8.35;7.07;;;;;;;;;;4997974;28;20066;-84
2024/02/28 09:51:59;;;;;;;8.90;6.82;;;;;;;;;;4997238;28;20050;-84
2024/02/28 09:54:27;;;;;;;8.52;6.70;;;;;;;;;;4997492;28;20093;-84
2024/02/28 09:56:55;;;;;;;6.82;6.22;;;;;;;;;;4997169;28;20046;-83
2024/02/28 09:59:24;;;;;;;6.95;6.25;;;;;;;;;;4997631;28;20050;-84
2024/02/28 10:02:06;;;;;;;8.90;7.00;;;;;;;;;;4992370;28;20109;-84
2024/02/28 10:04:34;;;;;;;7.50;6.70;;;;;;;;;;4992524;28;20289;-84
2024/02/28 10:07:13;;;;;;;6.32;5.70;;;;;;;;;;4993650;28;20061;-84
2024/02/28 10:09:41;;;;;;;6.18;5.57;;;;;;;;;;4994359;28;20085;-84
2024/02/28 10:12:08;;;;;;;6.07;5.47;;;;;;;;;;5001960;28;20089;-84
2024/02/28 10:14:35;;;;;;;6.50;5.38;;;;;;;;;;5002735;28;20100;-84
2024/02/28 10:17:03;;;;;;;18.63;5.65;;;;;;;;;;4996787;28;20043;-84
2024/02/28 10:19:30;;;;;;;5.10;4.60;;;;;;;;;;5001189;28;20093;-84
2024/02/28 10:21:57;;;;;;;6.60;5.30;;;;;;;;;;4993546;28;20076;-84
2024/02/28 10:24:25;;;;;;;7.55;4.95;;;;;;;;;;4996558;28;20070;-84
2024/02/28 10:26:55;;;;;;;6.63;5.90;;;;;;;;;;5007026;28;20050;-84
2024/02/28 10:29:28;;;;;;;5.90;5.30;;;;;;;;;;4999636;28;20050;-85
2024/02/28 10:31:58;;;;;;;7.35;5.15;;;;;;;;;;4994851;28;20417;-84
2024/02/28 10:34:25;;;;;;;5.85;5.25;;;;;;;;;;4997393;28;20054;-84
2024/02/28 10:36:53;;;;;;;7.75;6.05;;;;;;;;;;4998600;28;20423;-83
2024/02/28 10:39:21;;;;;;;6.57;5.90;;;;;;;;;;4989635;28;20054;-83
2024/02/28 10:41:51;;;;;;;5.57;5.07;;;;;;;;;;4997447;28;20050;-83
2024/02/28 10:44:18;;;;;;;8.93;5.47;;;;;;;;;;4996836;28;20496;-83
2024/02/28 10:46:49;;;;;;;7.90;4.88;;;;;;;;;;4997480;28;20046;-83
2024/02/28 10:49:17;;;;;;;5.65;5.00;;;;;;;;;;4999298;28;20046;-83
2024/02/28 10:51:46;;;;;;;5.30;4.80;;;;;;;;;;4985473;28;20047;-84
2024/02/28 10:54:14;;;;;;;6.03;4.55;;;;;;;;;;4995547;28;20128;-84
2024/02/28 10:56:42;;;;;;;5.25;4.75;;;;;;;;;;4990431;28;20073;-85
2024/02/28 10:59:12;;;;;;;6.80;5.30;;;;;;;;;;4997672;28;20085;-84
2024/02/28 11:01:44;;;;;;;10.05;4.57;;;;;;;;;;4985362;28;20109;-84
2024/02/28 11:04:13;;;;;;;4.72;4.30;;;;;;;;;;4997886;28;20054;-83
2024/02/28 11:06:55;;;;;;;4.25;3.85;;;;;;;;;;4997858;28;20058;-84
2024/02/28 11:09:23;;;;;;;5.15;4.65;;;;;;;;;;4996666;28;20089;-84
2024/02/28 11:11:51;;;;;;;9.32;5.25;;;;;;;;;;4984282;28;20050;-83
2024/02/28 11:14:22;;;;;;;5.03;4.13;;;;;;;;;;4990031;28;20102;-84
2024/02/28 11:17:00;;;;;;;5.25;4.45;;;;;;;;;;4987402;28;20114;-84
2024/02/28 11:19:28;;;;;;;9.00;5.43;;;;;;;;;;4998689;28;20057;-83
2024/02/28 11:21:56;;;;;;;5.47;4.45;;;;;;;;;;4993859;28;20570;-85
2024/02/28 11:24:30;;;;;;;10.02;5.80;;;;;;;;;;5001451;28;20070;-84
2024/02/28 11:26:58;;;;;;;5.50;4.70;;;;;;;;;;4995403;28;20054;-85
2024/02/28 11:29:31;;;;;;;4.82;4.43;;;;;;;;;;4999910;28;20050;-84
2024/02/28 11:31:59;;;;;;;5.07;4.63;;;;;;;;;;4994954;28;20050;-85
2024/02/28 11:34:26;;;;;;;4.88;4.47;;;;;;;;;;4995705;28;20054;-85
2024/02/28 11:36:55;;;;;;;5.47;4.80;;;;;;;;;;5005450;28;20047;-84
2024/02/28 11:39:24;;;;;;;5.10;4.65;;;;;;;;;;5005111;28;20486;-84
2024/02/28 11:41:52;;;;;;;7.95;6.82;;;;;;;;;;5001225;28;20054;-84
2024/02/28 11:44:20;;;;;;;5.95;4.80;;;;;;;;;;5002169;28;20046;-85
2024/02/28 11:46:48;;;;;;;7.50;6.05;;;;;;;;;;4998386;28;20563;-85
2024/02/28 11:49:15;;;;;;;35.50;26.73;;;;;;;;;;4999888;28;20054;-85
2024/02/28 11:51:46;;;;;;;19.95;13.35;;;;;;;;;;4993621;28;20154;-85
2024/02/28 11:54:13;;;;;;;9.65;8.35;;;;;;;;;;4989507;28;20066;-85
2024/02/28 11:56:41;;;;;;;21.55;15.55;;;;;;;;;;4985046;28;20066;-85
2024/02/28 11:59:11;;;;;;;6.18;5.35;;;;;;;;;;4985620;28;20043;-86
2024/02/28 12:01:40;;;;;;;5.72;5.20;;;;;;;;;;4991130;28;20069;-85
2024/02/28 12:04:08;;;;;;;7.47;5.68;;;;;;;;;;4985753;28;20047;-85
2024/02/28 12:06:36;;;;;;;5.40;4.90;;;;;;;;;;5000771;28;20137;-85
2024/02/28 12:09:08;;;;;;;12.95;9.90;;;;;;;;;;4993817;28;20114;-86
2024/02/28 12:11:36;;;;;;;5.32;4.47;;;;;;;;;;4985941;28;20133;-85
2024/02/28 12:14:06;;;;;;;9.60;7.25;;;;;;;;;;4987527;28;20137;-85
2024/02/28 12:16:34;;;;;;;31.40;20.55;;;;;;;;;;5000404;28;20574;-85
2024/02/28 12:19:04;;;;;;;35.97;23.63;;;;;;;;;;5002692;28;20046;-84
2024/02/28 12:21:31;;;;;;;11.88;8.80;;;;;;;;;;5000026;28;20515;-85
2024/02/28 12:23:58;;;;;;;6.57;5.18;;;;;;;;;;4987512;28;20111;-85
2024/02/28 12:26:27;;;;;;;5.15;4.57;;;;;;;;;;4990974;28;20050;-85
2024/02/28 12:28:55;;;;;;;5.65;5.05;;;;;;;;;;5002234;28;20046;-85
2024/02/28 12:31:22;;;;;;;21.50;14.98;;;;;;;;;;4985742;28;20051;-84
2024/02/28 12:33:49;;;;;;;5.18;4.68;;;;;;;;;;4996390;28;20101;-84
2024/02/28 12:36:17;;;;;;;52.15;33.38;;;;;;;;;;4998383;28;20110;-85
2024/02/28 12:38:44;;;;;;;114.85;68.70;;;;;;;;;;4987623;28;20047;-84
2024/02/28 12:41:11;;;;;;;32.40;21.20;;;;;;;;;;4981610;28;20051;-85
2024/02/28 12:43:39;;;;;;;35.97;23.02;;;;;;;;;;5006588;28;20077;-86
2024/02/28 12:46:06;;;;;;;5.50;4.95;;;;;;;;;;4998623;28;20050;-85
2024/02/28 12:48:38;;;;;;;11.73;9.13;;;;;;;;;;5001201;28;20074;-84
2024/02/28 12:51:06;;;;;;;29.77;20.15;;;;;;;;;;5000706;28;20496;-85
2024/02/28 12:53:33;;;;;;;14.88;10.68;;;;;;;;;;4994438;28;20081;-85
2024/02/28 12:56:00;;;;;;;5.70;5.20;;;;;;;;;;5004243;28;20073;-85
2024/02/28 12:58:28;;;;;;;8.35;5.53;;;;;;;;;;4991888;28;20139;-84
2024/02/28 13:00:57;;;;;;;8.38;6.95;;;;;;;;;;4986686;28;20049;-84
2024/02/28 13:03:24;;;;;;;4.35;3.95;;;;;;;;;;4995635;28;20078;-84
2024/02/28 13:05:52;;;;;;;12.55;9.60;;;;;;;;;;4986419;28;20050;-84
2024/02/28 13:08:19;;;;;;;5.28;3.80;;;;;;;;;;4987480;28;20125;-85
2024/02/28 13:10:46;;;;;;;12.23;5.07;;;;;;;;;;4984906;28;20055;-84
2024/02/28 13:13:13;;;;;;;8.82;5.10;;;;;;;;;;4994127;28;20054;-84
2024/02/28 13:15:41;;;;;;;8.23;5.97;;;;;;;;;;4977027;28;20508;-83
2024/02/28 13:18:10;;;;;;;10.07;7.45;;;;;;;;;;4991621;28;20491;-83
2024/02/28 13:20:39;;;;;;;14.63;10.38;;;;;;;;;;4975290;28;20094;-83
2024/02/28 13:23:07;;;;;;;4.80;4.30;;;;;;;;;;4983243;28;20065;-83
2024/02/28 13:25:34;;;;;;;4.28;3.88;;;;;;;;;;4993678;28;20056;-84
2024/02/28 13:28:01;;;;;;;9.82;3.53;;;;;;;;;;4978345;28;20054;-83
2024/02/28 13:30:28;;;;;;;6.18;5.22;;;;;;;;;;4982871;28;20570;-83
2024/02/28 13:32:56;;;;;;;5.72;4.43;;;;;;;;;;4989173;28;20442;-83
2024/02/28 13:35:24;;;;;;;7.85;4.70;;;;;;;;;;4996142;28;20132;-84
2024/02/28 13:37:53;;;;;;;4.00;3.60;;;;;;;;;;4995357;28;20053;-85
2024/02/28 13:40:20;;;;;;;4.53;3.78;;;;;;;;;;4980319;28;20086;-85
2024/02/28 13:42:47;;;;;;;6.85;3.38;;;;;;;;;;4993325;28;20054;-85
2024/02/28 13:45:17;;;;;;;4.20;3.50;;;;;;;;;;4987049;28;20050;-83
2024/02/28 13:47:45;;;;;;;3.90;3.55;;;;;;;;;;4996760;28;20061;-84
2024/02/28 13:50:13;;;;;;;8.38;4.32;;;;;;;;;;4997597;28;20496;-85
2024/02/28 13:52:41;;;;;;;6.85;3.95;;;;;;;;;;4994440;28;20135;-85
2024/02/28 13:55:09;;;;;;;8.85;4.18;;;;;;;;;;4987341;28;20051;-83
2024/02/28 13:57:36;;;;;;;5.70;3.75;;;;;;;;;;4991057;28;20046;-85
2024/02/28 14:00:06;;;;;;;4.43;3.42;;;;;;;;;;5000561;28;20112;-84
2024/02/28 14:02:34;;;;;;;5.25;3.50;;;;;;;;;;5001186;28;20133;-85
2024/02/28 14:05:02;;;;;;;7.53;3.67;;;;;;;;;;5002422;28;20113;-84
2024/02/28 14:07:29;;;;;;;4.05;3.10;;;;;;;;;;5003298;28;20118;-85
2024/02/28 14:09:57;;;;;;;5.55;3.42;;;;;;;;;;4997826;28;20057;-85
2024/02/28 14:12:24;;;;;;;3.25;2.95;;;;;;;;;;4989796;28;20058;-84
2024/02/28 14:14:51;;;;;;;5.40;3.85;;;;;;;;;;4987442;28;20051;-83
2024/02/28 14:17:19;;;;;;;6.45;3.70;;;;;;;;;;4997124;28;20042;-83
2024/02/28 14:19:48;;;;;;;4.63;2.95;;;;;;;;;;4993384;28;20055;-84
2024/02/28 14:22:15;;;;;;;6.75;3.28;;;;;;;;;;4995122;28;20086;-84
2024/02/28 14:24:42;;;;;;;11.00;3.67;;;;;;;;;;4998058;28;20046;-83
2024/02/28 14:27:10;;;;;;;4.03;3.60;;;;;;;;;;4998831;28;20142;-83
2024/02/28 14:29:37;;;;;;;3.10;2.80;;;;;;;;;;4990535;28;20113;-83
2024/02/28 14:32:06;;;;;;;3.97;3.47;;;;;;;;;;5001457;28;20104;-84